sensor_id;sensor_type;location;lat;lon;timestamp;pressure;altitude;pressure_sealevel;temperature;humidity
28027;BME280;15344;52.342;-1.290;2022-08-18T00:00:04;100284.85;;;20.25;84.64
28027;BME280;15344;52.342;-1.290;2022-08-18T00:02:29;100287.21;;;18.90;91.38
28027;BME280;15344;52.342;-1.290;2022-08-18T00:04:55;100288.38;;;19.03;87.74
28027;BME280;15344;52.342;-1.290;2022-08-18T00:07:21;100282.03;;;20.83;83.48
28027;BME280;15344;52.342;-1.290;2022-08-18T00:09:44;100276.97;;;19.90;86.89
28027;BME280;15344;52.342;-1.290;2022-08-18T00:12:14;100267.93;;;19.26;89.86
28027;BME280;15344;52.342;-1.290;2022-08-18T00:14:35;100268.40;;;18.57;95.88
28027;BME280;15344;52.342;-1.290;2022-08-18T00:17:00;100267.10;;;19.71;89.58
28027;BME280;15344;52.342;-1.290;2022-08-18T00:19:27;100271.42;;;19.76;86.48
28027;BME280;15344;52.342;-1.290;2022-08-18T00:21:51;100275.76;;;20.43;85.54
28027;BME280;15344;52.342;-1.290;2022-08-18T00:24:16;100278.68;;;20.71;83.53
28027;BME280;15344;52.342;-1.290;2022-08-18T00:26:41;100282.84;;;21.60;80.54
28027;BME280;15344;52.342;-1.290;2022-08-18T00:29:06;100283.19;;;21.19;80.08
28027;BME280;15344;52.342;-1.290;2022-08-18T00:31:32;100276.16;;;19.34;87.43
28027;BME280;15344;52.342;-1.290;2022-08-18T00:33:56;100273.85;;;20.89;82.04
28027;BME280;15344;52.342;-1.290;2022-08-18T00:36:21;100272.82;;;21.19;81.15
28027;BME280;15344;52.342;-1.290;2022-08-18T00:38:47;100269.59;;;21.00;83.01
28027;BME280;15344;52.342;-1.290;2022-08-18T00:41:12;100262.69;;;20.16;86.45
28027;BME280;15344;52.342;-1.290;2022-08-18T00:43:42;100259.76;;;20.00;86.74
28027;BME280;15344;52.342;-1.290;2022-08-18T00:46:05;100256.35;;;20.94;82.64
28027;BME280;15344;52.342;-1.290;2022-08-18T00:48:27;100255.17;;;19.96;86.57
28027;BME280;15344;52.342;-1.290;2022-08-18T00:50:55;100254.93;;;19.71;87.84
28027;BME280;15344;52.342;-1.290;2022-08-18T00:53:21;100250.39;;;20.02;86.87
28027;BME280;15344;52.342;-1.290;2022-08-18T00:55:43;100255.42;;;21.17;82.94
28027;BME280;15344;52.342;-1.290;2022-08-18T00:58:10;100249.59;;;19.97;88.44
28027;BME280;15344;52.342;-1.290;2022-08-18T01:00:33;100251.36;;;21.36;81.03
28027;BME280;15344;52.342;-1.290;2022-08-18T01:03:00;100248.06;;;20.54;84.50
28027;BME280;15344;52.342;-1.290;2022-08-18T01:05:27;100247.75;;;19.62;89.97
28027;BME280;15344;52.342;-1.290;2022-08-18T01:07:49;100246.71;;;19.66;87.89
28027;BME280;15344;52.342;-1.290;2022-08-18T01:10:15;100246.18;;;20.78;85.44
28027;BME280;15344;52.342;-1.290;2022-08-18T01:12:38;100243.81;;;20.41;84.42
28027;BME280;15344;52.342;-1.290;2022-08-18T01:15:04;100245.27;;;19.63;87.38
28027;BME280;15344;52.342;-1.290;2022-08-18T01:17:29;100244.41;;;19.94;86.73
28027;BME280;15344;52.342;-1.290;2022-08-18T01:19:55;100245.48;;;20.58;84.07
28027;BME280;15344;52.342;-1.290;2022-08-18T01:22:25;100249.35;;;21.14;81.39
28027;BME280;15344;52.342;-1.290;2022-08-18T01:24:44;100244.69;;;20.81;82.22
28027;BME280;15344;52.342;-1.290;2022-08-18T01:27:10;100245.66;;;21.57;79.98
28027;BME280;15344;52.342;-1.290;2022-08-18T01:29:35;100244.79;;;21.44;80.53
28027;BME280;15344;52.342;-1.290;2022-08-18T01:31:59;100241.65;;;20.80;83.19
28027;BME280;15344;52.342;-1.290;2022-08-18T01:34:26;100236.93;;;20.37;85.36
28027;BME280;15344;52.342;-1.290;2022-08-18T01:36:51;100234.40;;;18.92;88.47
28027;BME280;15344;52.342;-1.290;2022-08-18T01:39:15;100231.27;;;20.38;84.58
28027;BME280;15344;52.342;-1.290;2022-08-18T01:41:40;100229.99;;;21.04;82.92
28027;BME280;15344;52.342;-1.290;2022-08-18T01:44:06;100226.71;;;20.84;83.10
28027;BME280;15344;52.342;-1.290;2022-08-18T01:46:32;100231.05;;;20.43;84.05
28027;BME280;15344;52.342;-1.290;2022-08-18T01:48:56;100237.46;;;20.35;84.26
28027;BME280;15344;52.342;-1.290;2022-08-18T01:51:21;100241.47;;;20.70;82.79
28027;BME280;15344;52.342;-1.290;2022-08-18T01:53:47;100246.90;;;20.80;82.80
28027;BME280;15344;52.342;-1.290;2022-08-18T01:56:12;100250.38;;;21.10;80.79
28027;BME280;15344;52.342;-1.290;2022-08-18T01:58:37;100253.90;;;21.21;80.13
28027;BME280;15344;52.342;-1.290;2022-08-18T02:01:04;100250.53;;;20.63;83.32
28027;BME280;15344;52.342;-1.290;2022-08-18T02:03:32;100254.19;;;21.24;80.43
28027;BME280;15344;52.342;-1.290;2022-08-18T02:06:01;100251.63;;;20.09;82.25
28027;BME280;15344;52.342;-1.290;2022-08-18T02:08:18;100249.92;;;21.08;80.09
28027;BME280;15344;52.342;-1.290;2022-08-18T02:10:43;100246.68;;;20.90;82.33
28027;BME280;15344;52.342;-1.290;2022-08-18T02:13:09;100245.31;;;21.55;79.83
28027;BME280;15344;52.342;-1.290;2022-08-18T02:15:34;100241.30;;;21.28;79.70
28027;BME280;15344;52.342;-1.290;2022-08-18T02:17:59;100242.75;;;21.47;78.83
28027;BME280;15344;52.342;-1.290;2022-08-18T02:20:24;100241.00;;;20.57;82.82
28027;BME280;15344;52.342;-1.290;2022-08-18T02:22:50;100238.10;;;20.93;81.38
28027;BME280;15344;52.342;-1.290;2022-08-18T02:25:16;100236.19;;;20.53;80.44
28027;BME280;15344;52.342;-1.290;2022-08-18T02:27:41;100236.11;;;21.66;79.14
28027;BME280;15344;52.342;-1.290;2022-08-18T02:30:08;100230.65;;;20.48;80.90
28027;BME280;15344;52.342;-1.290;2022-08-18T02:32:31;100227.02;;;20.29;85.31
28027;BME280;15344;52.342;-1.290;2022-08-18T02:34:55;100225.77;;;19.57;85.13
28027;BME280;15344;52.342;-1.290;2022-08-18T02:37:21;100227.03;;;20.59;82.31
28027;BME280;15344;52.342;-1.290;2022-08-18T02:39:46;100227.73;;;21.42;80.08
28027;BME280;15344;52.342;-1.290;2022-08-18T02:42:11;100219.29;;;20.90;79.84
28027;BME280;15344;52.342;-1.290;2022-08-18T02:44:36;100216.89;;;19.13;87.41
28027;BME280;15344;52.342;-1.290;2022-08-18T02:47:01;100213.66;;;20.10;84.86
28027;BME280;15344;52.342;-1.290;2022-08-18T02:49:27;100209.81;;;20.77;82.48
28027;BME280;15344;52.342;-1.290;2022-08-18T02:51:52;100201.20;;;20.52;82.48
28027;BME280;15344;52.342;-1.290;2022-08-18T02:54:17;100193.67;;;20.79;81.53
28027;BME280;15344;52.342;-1.290;2022-08-18T02:56:42;100198.72;;;21.55;78.69
28027;BME280;15344;52.342;-1.290;2022-08-18T02:59:08;100196.38;;;22.44;76.16
28027;BME280;15344;52.342;-1.290;2022-08-18T03:01:34;100196.56;;;22.25;76.24
28027;BME280;15344;52.342;-1.290;2022-08-18T03:03:59;100197.57;;;21.28;81.51
28027;BME280;15344;52.342;-1.290;2022-08-18T03:06:24;100192.51;;;21.76;79.98
28027;BME280;15344;52.342;-1.290;2022-08-18T03:08:47;100178.76;;;22.10;77.91
28027;BME280;15344;52.342;-1.290;2022-08-18T03:11:12;100179.80;;;19.92;82.88
28027;BME280;15344;52.342;-1.290;2022-08-18T03:13:38;100176.04;;;21.57;80.14
28027;BME280;15344;52.342;-1.290;2022-08-18T03:16:04;100179.93;;;20.98;80.35
28027;BME280;15344;52.342;-1.290;2022-08-18T03:18:28;100174.75;;;21.81;77.81
28027;BME280;15344;52.342;-1.290;2022-08-18T03:20:53;100179.20;;;21.29;79.48
28027;BME280;15344;52.342;-1.290;2022-08-18T03:23:18;100180.53;;;21.17;79.81
28027;BME280;15344;52.342;-1.290;2022-08-18T03:25:46;100177.13;;;21.33;80.25
28027;BME280;15344;52.342;-1.290;2022-08-18T03:28:09;100173.46;;;22.03;77.34
28027;BME280;15344;52.342;-1.290;2022-08-18T03:30:34;100176.00;;;21.95;77.86
28027;BME280;15344;52.342;-1.290;2022-08-18T03:32:59;100177.10;;;22.55;76.04
28027;BME280;15344;52.342;-1.290;2022-08-18T03:35:24;100179.20;;;22.02;76.47
28027;BME280;15344;52.342;-1.290;2022-08-18T03:37:50;100178.14;;;22.69;74.97
28027;BME280;15344;52.342;-1.290;2022-08-18T03:40:15;100176.11;;;22.72;75.02
28027;BME280;15344;52.342;-1.290;2022-08-18T03:42:40;100177.08;;;22.99;73.64
28027;BME280;15344;52.342;-1.290;2022-08-18T03:45:06;100178.19;;;22.67;75.88
28027;BME280;15344;52.342;-1.290;2022-08-18T03:47:30;100174.91;;;22.61;74.79
28027;BME280;15344;52.342;-1.290;2022-08-18T03:49:56;100174.07;;;22.63;73.85
28027;BME280;15344;52.342;-1.290;2022-08-18T03:52:21;100173.17;;;22.81;74.13
28027;BME280;15344;52.342;-1.290;2022-08-18T03:54:46;100169.94;;;22.72;74.41
28027;BME280;15344;52.342;-1.290;2022-08-18T03:57:12;100166.00;;;22.17;76.14
28027;BME280;15344;52.342;-1.290;2022-08-18T03:59:37;100165.18;;;23.01;73.72
28027;BME280;15344;52.342;-1.290;2022-08-18T04:02:03;100162.41;;;22.54;73.30
28027;BME280;15344;52.342;-1.290;2022-08-18T04:04:27;100160.59;;;22.72;73.22
28027;BME280;15344;52.342;-1.290;2022-08-18T04:06:55;100164.26;;;22.76;72.83
28027;BME280;15344;52.342;-1.290;2022-08-18T04:09:19;100162.18;;;22.88;73.28
28027;BME280;15344;52.342;-1.290;2022-08-18T04:11:43;100161.02;;;23.12;72.95
28027;BME280;15344;52.342;-1.290;2022-08-18T04:14:08;100156.01;;;23.18;71.06
28027;BME280;15344;52.342;-1.290;2022-08-18T04:16:33;100151.84;;;23.47;69.87
28027;BME280;15344;52.342;-1.290;2022-08-18T04:18:58;100154.77;;;23.24;70.51
28027;BME280;15344;52.342;-1.290;2022-08-18T04:21:23;100154.46;;;23.29;70.61
28027;BME280;15344;52.342;-1.290;2022-08-18T04:23:48;100156.33;;;23.21;71.35
28027;BME280;15344;52.342;-1.290;2022-08-18T04:26:13;100157.85;;;22.80;72.37
28027;BME280;15344;52.342;-1.290;2022-08-18T04:28:38;100154.04;;;23.42;70.69
28027;BME280;15344;52.342;-1.290;2022-08-18T04:31:07;100155.49;;;22.65;72.61
28027;BME280;15344;52.342;-1.290;2022-08-18T04:33:28;100151.67;;;23.43;71.21
28027;BME280;15344;52.342;-1.290;2022-08-18T04:35:54;100151.23;;;23.25;72.06
28027;BME280;15344;52.342;-1.290;2022-08-18T04:38:19;100154.65;;;23.20;72.04
28027;BME280;15344;52.342;-1.290;2022-08-18T04:40:44;100152.85;;;23.17;73.35
28027;BME280;15344;52.342;-1.290;2022-08-18T04:43:09;100155.54;;;23.06;73.40
28027;BME280;15344;52.342;-1.290;2022-08-18T04:45:34;100154.16;;;23.01;74.92
28027;BME280;15344;52.342;-1.290;2022-08-18T04:47:59;100155.21;;;23.23;74.41
28027;BME280;15344;52.342;-1.290;2022-08-18T04:50:24;100149.50;;;22.71;75.33
28027;BME280;15344;52.342;-1.290;2022-08-18T04:52:50;100148.24;;;22.79;75.08
28027;BME280;15344;52.342;-1.290;2022-08-18T04:55:15;100151.27;;;22.97;71.59
28027;BME280;15344;52.342;-1.290;2022-08-18T04:57:40;100152.80;;;23.61;71.08
28027;BME280;15344;52.342;-1.290;2022-08-18T05:00:06;100152.68;;;23.55;70.58
28027;BME280;15344;52.342;-1.290;2022-08-18T05:02:30;100155.41;;;23.21;72.90
28027;BME280;15344;52.342;-1.290;2022-08-18T05:04:56;100154.00;;;23.73;72.50
28027;BME280;15344;52.342;-1.290;2022-08-18T05:07:21;100160.37;;;23.26;71.07
28027;BME280;15344;52.342;-1.290;2022-08-18T05:09:46;100161.01;;;23.43;70.80
28027;BME280;15344;52.342;-1.290;2022-08-18T05:12:13;100162.69;;;23.12;72.31
28027;BME280;15344;52.342;-1.290;2022-08-18T05:14:37;100163.32;;;23.54;70.66
28027;BME280;15344;52.342;-1.290;2022-08-18T05:17:03;100163.50;;;23.10;73.33
28027;BME280;15344;52.342;-1.290;2022-08-18T05:19:29;100158.28;;;23.38;72.52
28027;BME280;15344;52.342;-1.290;2022-08-18T05:21:53;100157.93;;;22.99;72.60
28027;BME280;15344;52.342;-1.290;2022-08-18T05:24:18;100164.34;;;23.42;72.75
28027;BME280;15344;52.342;-1.290;2022-08-18T05:26:42;100162.51;;;23.22;72.59
28027;BME280;15344;52.342;-1.290;2022-08-18T05:29:07;100158.51;;;23.69;70.95
28027;BME280;15344;52.342;-1.290;2022-08-18T05:31:33;100158.65;;;23.13;73.07
28027;BME280;15344;52.342;-1.290;2022-08-18T05:33:58;100156.07;;;23.51;72.55
28027;BME280;15344;52.342;-1.290;2022-08-18T05:36:41;100152.15;;;23.50;71.73
28027;BME280;15344;52.342;-1.290;2022-08-18T05:38:56;100153.68;;;23.44;71.84
28027;BME280;15344;52.342;-1.290;2022-08-18T05:41:19;100152.19;;;22.87;74.01
28027;BME280;15344;52.342;-1.290;2022-08-18T05:43:41;100144.76;;;23.40;73.60
28027;BME280;15344;52.342;-1.290;2022-08-18T05:46:07;100140.28;;;23.78;72.81
28027;BME280;15344;52.342;-1.290;2022-08-18T05:48:30;100141.44;;;23.31;74.52
28027;BME280;15344;52.342;-1.290;2022-08-18T05:50:55;100142.92;;;23.17;73.52
28027;BME280;15344;52.342;-1.290;2022-08-18T05:53:20;100148.38;;;23.29;73.94
28027;BME280;15344;52.342;-1.290;2022-08-18T05:55:53;100150.45;;;23.43;74.14
28027;BME280;15344;52.342;-1.290;2022-08-18T05:58:15;100152.43;;;23.69;73.05
28027;BME280;15344;52.342;-1.290;2022-08-18T06:00:36;100155.00;;;23.95;71.08
28027;BME280;15344;52.342;-1.290;2022-08-18T06:03:06;100154.88;;;23.92;72.05
28027;BME280;15344;52.342;-1.290;2022-08-18T06:05:29;100157.65;;;23.27;73.06
28027;BME280;15344;52.342;-1.290;2022-08-18T06:07:54;100156.34;;;23.31;74.31
28027;BME280;15344;52.342;-1.290;2022-08-18T06:10:18;100154.12;;;23.48;72.75
28027;BME280;15344;52.342;-1.290;2022-08-18T06:12:45;100154.07;;;22.96;74.65
28027;BME280;15344;52.342;-1.290;2022-08-18T06:15:13;100147.18;;;23.44;72.83
28027;BME280;15344;52.342;-1.290;2022-08-18T06:17:50;100148.96;;;22.85;75.38
28027;BME280;15344;52.342;-1.290;2022-08-18T06:20:05;100146.71;;;22.84;75.50
28027;BME280;15344;52.342;-1.290;2022-08-18T06:22:29;100139.64;;;22.21;77.28
28027;BME280;15344;52.342;-1.290;2022-08-18T06:24:54;100138.74;;;22.51;77.59
28027;BME280;15344;52.342;-1.290;2022-08-18T06:27:21;100136.71;;;22.00;79.02
28027;BME280;15344;52.342;-1.290;2022-08-18T06:29:52;100136.75;;;21.68;80.05
28027;BME280;15344;52.342;-1.290;2022-08-18T06:32:09;100139.44;;;22.67;77.02
28027;BME280;15344;52.342;-1.290;2022-08-18T06:34:38;100138.87;;;22.59;77.47
28027;BME280;15344;52.342;-1.290;2022-08-18T06:37:01;100139.14;;;22.83;76.78
28027;BME280;15344;52.342;-1.290;2022-08-18T06:39:31;100136.54;;;22.63;76.88
28027;BME280;15344;52.342;-1.290;2022-08-18T06:41:48;100141.76;;;22.75;77.44
28027;BME280;15344;52.342;-1.290;2022-08-18T06:44:15;100138.10;;;22.56;78.66
28027;BME280;15344;52.342;-1.290;2022-08-18T06:46:41;100139.59;;;22.84;78.52
28027;BME280;15344;52.342;-1.290;2022-08-18T06:49:05;100139.81;;;22.96;77.23
28027;BME280;15344;52.342;-1.290;2022-08-18T06:51:27;100142.56;;;23.09;78.12
28027;BME280;15344;52.342;-1.290;2022-08-18T06:53:56;100141.18;;;22.42;76.25
28027;BME280;15344;52.342;-1.290;2022-08-18T06:56:21;100140.62;;;22.93;77.62
28027;BME280;15344;52.342;-1.290;2022-08-18T06:58:44;100145.64;;;23.00;76.68
28027;BME280;15344;52.342;-1.290;2022-08-18T07:01:09;100143.48;;;22.34;79.25
28027;BME280;15344;52.342;-1.290;2022-08-18T07:03:40;100145.04;;;22.33;79.64
28027;BME280;15344;52.342;-1.290;2022-08-18T07:06:01;100150.92;;;22.69;79.58
28027;BME280;15344;52.342;-1.290;2022-08-18T07:08:30;100152.53;;;22.71;78.68
28027;BME280;15344;52.342;-1.290;2022-08-18T07:10:51;100152.55;;;22.53;80.30
28027;BME280;15344;52.342;-1.290;2022-08-18T07:13:21;100152.24;;;22.34;79.89
28027;BME280;15344;52.342;-1.290;2022-08-18T07:15:41;100151.50;;;21.96;81.94
28027;BME280;15344;52.342;-1.290;2022-08-18T07:18:08;100153.74;;;22.45;81.80
28027;BME280;15344;52.342;-1.290;2022-08-18T07:20:42;100153.51;;;22.65;80.50
28027;BME280;15344;52.342;-1.290;2022-08-18T07:23:03;100150.18;;;23.18;78.12
28027;BME280;15344;52.342;-1.290;2022-08-18T07:25:27;100152.87;;;23.02;79.83
28027;BME280;15344;52.342;-1.290;2022-08-18T07:27:49;100157.05;;;23.10;78.96
28027;BME280;15344;52.342;-1.290;2022-08-18T07:32:43;100153.53;;;22.84;78.51
28027;BME280;15344;52.342;-1.290;2022-08-18T07:35:06;100156.42;;;23.01;78.47
28027;BME280;15344;52.342;-1.290;2022-08-18T07:37:33;100158.17;;;22.90;78.40
28027;BME280;15344;52.342;-1.290;2022-08-18T07:39:58;100155.14;;;22.06;80.65
28027;BME280;15344;52.342;-1.290;2022-08-18T07:42:29;100154.58;;;22.74;80.49
28027;BME280;15344;52.342;-1.290;2022-08-18T07:44:50;100153.79;;;23.08;79.72
28027;BME280;15344;52.342;-1.290;2022-08-18T07:47:16;100155.15;;;22.79;79.15
28027;BME280;15344;52.342;-1.290;2022-08-18T07:49:37;100157.12;;;23.21;77.47
28027;BME280;15344;52.342;-1.290;2022-08-18T07:52:06;100156.16;;;23.40;76.04
28027;BME280;15344;52.342;-1.290;2022-08-18T07:54:39;100149.48;;;23.60;76.81
28027;BME280;15344;52.342;-1.290;2022-08-18T07:56:57;100149.45;;;23.45;77.30
28027;BME280;15344;52.342;-1.290;2022-08-18T07:59:23;100153.63;;;23.76;76.28
28027;BME280;15344;52.342;-1.290;2022-08-18T08:01:48;100153.82;;;22.88;78.79
28027;BME280;15344;52.342;-1.290;2022-08-18T08:04:14;100154.75;;;23.05;77.58
28027;BME280;15344;52.342;-1.290;2022-08-18T08:06:40;100153.96;;;23.34;77.37
28027;BME280;15344;52.342;-1.290;2022-08-18T08:09:04;100154.59;;;23.12;78.25
28027;BME280;15344;52.342;-1.290;2022-08-18T08:11:33;100160.07;;;22.96;79.41
28027;BME280;15344;52.342;-1.290;2022-08-18T08:14:00;100158.50;;;23.42;78.28
28027;BME280;15344;52.342;-1.290;2022-08-18T08:16:31;100158.90;;;23.87;76.74
28027;BME280;15344;52.342;-1.290;2022-08-18T08:18:48;100158.99;;;23.50;76.64
28027;BME280;15344;52.342;-1.290;2022-08-18T08:21:10;100159.49;;;23.08;78.98
28027;BME280;15344;52.342;-1.290;2022-08-18T08:23:39;100160.32;;;22.70;79.96
28027;BME280;15344;52.342;-1.290;2022-08-18T08:28:33;100156.15;;;22.10;84.46
28027;BME280;15344;52.342;-1.290;2022-08-18T08:30:52;100155.16;;;22.31;85.32
28027;BME280;15344;52.342;-1.290;2022-08-18T08:33:21;100158.83;;;22.47;84.46
28027;BME280;15344;52.342;-1.290;2022-08-18T08:35:44;100156.99;;;22.28;85.99
28027;BME280;15344;52.342;-1.290;2022-08-18T08:38:09;100156.21;;;22.16;86.14
28027;BME280;15344;52.342;-1.290;2022-08-18T08:40:45;100153.44;;;21.96;88.30
28027;BME280;15344;52.342;-1.290;2022-08-18T08:42:58;100155.48;;;22.40;86.02
28027;BME280;15344;52.342;-1.290;2022-08-18T08:45:26;100153.55;;;22.78;84.68
28027;BME280;15344;52.342;-1.290;2022-08-18T08:47:54;100156.67;;;23.30;83.28
28027;BME280;15344;52.342;-1.290;2022-08-18T08:50:14;100152.95;;;22.62;86.14
28027;BME280;15344;52.342;-1.290;2022-08-18T08:52:44;100155.42;;;23.02;85.18
28027;BME280;15344;52.342;-1.290;2022-08-18T08:55:08;100150.06;;;22.75;84.40
28027;BME280;15344;52.342;-1.290;2022-08-18T08:57:32;100147.05;;;22.77;86.31
28027;BME280;15344;52.342;-1.290;2022-08-18T08:59:55;100146.39;;;22.77;84.12
28027;BME280;15344;52.342;-1.290;2022-08-18T09:02:33;100146.91;;;22.83;85.35
28027;BME280;15344;52.342;-1.290;2022-08-18T09:04:51;100146.85;;;23.10;84.27
28027;BME280;15344;52.342;-1.290;2022-08-18T09:07:24;100145.01;;;23.27;82.96
28027;BME280;15344;52.342;-1.290;2022-08-18T09:09:46;100138.12;;;22.86;84.03
28027;BME280;15344;52.342;-1.290;2022-08-18T09:12:10;100132.10;;;23.68;82.19
28027;BME280;15344;52.342;-1.290;2022-08-18T09:14:40;100132.36;;;23.43;84.25
28027;BME280;15344;52.342;-1.290;2022-08-18T09:21:47;100145.37;;;23.97;80.83
28027;BME280;15344;52.342;-1.290;2022-08-18T09:24:19;100142.90;;;24.48;79.81
28027;BME280;15344;52.342;-1.290;2022-08-18T09:26:41;100136.73;;;23.55;81.40
28027;BME280;15344;52.342;-1.290;2022-08-18T09:29:12;100131.29;;;23.69;81.09
28027;BME280;15344;52.342;-1.290;2022-08-18T09:31:25;100137.22;;;24.24;81.01
28027;BME280;15344;52.342;-1.290;2022-08-18T09:33:59;100137.33;;;24.13;81.20
28027;BME280;15344;52.342;-1.290;2022-08-18T09:36:26;100134.07;;;24.08;80.78
28027;BME280;15344;52.342;-1.290;2022-08-18T09:38:48;100129.79;;;24.54;80.53
28027;BME280;15344;52.342;-1.290;2022-08-18T09:41:09;100121.83;;;23.70;81.14
28027;BME280;15344;52.342;-1.290;2022-08-18T09:43:35;100125.44;;;24.15;80.49
28027;BME280;15344;52.342;-1.290;2022-08-18T09:45:57;100120.10;;;24.48;77.62
28027;BME280;15344;52.342;-1.290;2022-08-18T09:48:25;100120.88;;;24.55;78.49
28027;BME280;15344;52.342;-1.290;2022-08-18T09:50:54;100114.10;;;24.22;77.50
28027;BME280;15344;52.342;-1.290;2022-08-18T09:58:13;100098.59;;;25.56;74.63
28027;BME280;15344;52.342;-1.290;2022-08-18T10:00:29;100100.79;;;24.78;75.10
28027;BME280;15344;52.342;-1.290;2022-08-18T10:03:01;100091.27;;;25.53;71.65
28027;BME280;15344;52.342;-1.290;2022-08-18T10:05:26;100086.35;;;26.18;71.88
28027;BME280;15344;52.342;-1.290;2022-08-18T10:07:45;100088.20;;;26.07;69.50
28027;BME280;15344;52.342;-1.290;2022-08-18T10:10:18;100087.79;;;26.31;69.09
28027;BME280;15344;52.342;-1.290;2022-08-18T10:15:12;100091.22;;;25.43;70.45
28027;BME280;15344;52.342;-1.290;2022-08-18T10:17:38;100087.26;;;25.29;72.27
28027;BME280;15344;52.342;-1.290;2022-08-18T10:19:56;100086.26;;;24.67;71.75
28027;BME280;15344;52.342;-1.290;2022-08-18T10:24:45;100079.82;;;25.38;69.88
28027;BME280;15344;52.342;-1.290;2022-08-18T10:27:11;100080.82;;;25.70;70.03
28027;BME280;15344;52.342;-1.290;2022-08-18T10:36:52;100080.88;;;26.27;66.63
28027;BME280;15344;52.342;-1.290;2022-08-18T10:39:18;100087.03;;;26.41;65.84
28027;BME280;15344;52.342;-1.290;2022-08-18T10:41:50;100089.28;;;27.06;66.47
28027;BME280;15344;52.342;-1.290;2022-08-18T10:44:06;100094.01;;;27.32;57.49
28027;BME280;15344;52.342;-1.290;2022-08-18T10:46:34;100092.99;;;26.38;61.18
28027;BME280;15344;52.342;-1.290;2022-08-18T10:49:00;100088.73;;;25.77;63.33
28027;BME280;15344;52.342;-1.290;2022-08-18T10:51:30;100090.33;;;25.65;65.43
28027;BME280;15344;52.342;-1.290;2022-08-18T10:53:52;100087.92;;;26.13;62.88
28027;BME280;15344;52.342;-1.290;2022-08-18T10:56:25;100082.79;;;26.31;60.56
28027;BME280;15344;52.342;-1.290;2022-08-18T10:58:46;100076.64;;;26.76;62.34
28027;BME280;15344;52.342;-1.290;2022-08-18T11:01:15;100079.36;;;26.65;60.43
28027;BME280;15344;52.342;-1.290;2022-08-18T11:03:41;100079.36;;;27.07;59.29
28027;BME280;15344;52.342;-1.290;2022-08-18T11:06:02;100084.80;;;26.57;58.48
28027;BME280;15344;52.342;-1.290;2022-08-18T11:08:21;100081.29;;;25.37;62.60
28027;BME280;15344;52.342;-1.290;2022-08-18T11:10:48;100077.84;;;26.17;61.27
28027;BME280;15344;52.342;-1.290;2022-08-18T11:13:24;100077.90;;;25.32;62.10
28027;BME280;15344;52.342;-1.290;2022-08-18T11:15:46;100070.26;;;25.54;63.78
28027;BME280;15344;52.342;-1.290;2022-08-18T11:18:16;100068.10;;;26.00;63.80
28027;BME280;15344;52.342;-1.290;2022-08-18T11:20:31;100062.53;;;25.58;62.99
28027;BME280;15344;52.342;-1.290;2022-08-18T11:22:59;100057.93;;;26.23;61.70
28027;BME280;15344;52.342;-1.290;2022-08-18T11:25:25;100047.56;;;25.65;62.43
28027;BME280;15344;52.342;-1.290;2022-08-18T11:27:48;100039.39;;;25.65;62.72
28027;BME280;15344;52.342;-1.290;2022-08-18T11:30:13;100034.28;;;25.92;64.60
28027;BME280;15344;52.342;-1.290;2022-08-18T11:32:40;100029.34;;;25.96;65.76
28027;BME280;15344;52.342;-1.290;2022-08-18T11:35:11;100020.81;;;25.88;63.58
28027;BME280;15344;52.342;-1.290;2022-08-18T11:37:35;100012.27;;;26.84;60.80
28027;BME280;15344;52.342;-1.290;2022-08-18T11:39:58;100013.80;;;27.00;61.64
28027;BME280;15344;52.342;-1.290;2022-08-18T11:42:27;100014.23;;;26.60;57.62
28027;BME280;15344;52.342;-1.290;2022-08-18T11:44:47;100013.96;;;25.88;59.79
28027;BME280;15344;52.342;-1.290;2022-08-18T11:47:17;100013.13;;;25.86;62.26
28027;BME280;15344;52.342;-1.290;2022-08-18T11:49:50;100010.24;;;25.91;60.52
28027;BME280;15344;52.342;-1.290;2022-08-18T11:52:15;100013.30;;;26.00;57.99
28027;BME280;15344;52.342;-1.290;2022-08-18T11:54:37;100016.29;;;26.65;57.13
28027;BME280;15344;52.342;-1.290;2022-08-18T11:59:30;100019.89;;;27.01;55.09
28027;BME280;15344;52.342;-1.290;2022-08-18T12:01:49;100018.37;;;26.36;54.84
28027;BME280;15344;52.342;-1.290;2022-08-18T12:04:20;100018.58;;;26.63;54.65
28027;BME280;15344;52.342;-1.290;2022-08-18T12:06:49;100014.03;;;26.73;56.68
28027;BME280;15344;52.342;-1.290;2022-08-18T12:09:13;100014.37;;;26.67;53.15
28027;BME280;15344;52.342;-1.290;2022-08-18T12:11:32;100018.37;;;26.50;54.35
28027;BME280;15344;52.342;-1.290;2022-08-18T12:14:00;100012.29;;;25.75;54.59
28027;BME280;15344;52.342;-1.290;2022-08-18T12:16:31;100007.51;;;26.33;53.80
28027;BME280;15344;52.342;-1.290;2022-08-18T12:18:47;100008.65;;;26.47;56.75
28027;BME280;15344;52.342;-1.290;2022-08-18T12:21:13;100008.95;;;26.98;54.13
28027;BME280;15344;52.342;-1.290;2022-08-18T12:23:40;100004.91;;;26.35;51.15
28027;BME280;15344;52.342;-1.290;2022-08-18T12:26:05;100006.31;;;26.65;54.09
28027;BME280;15344;52.342;-1.290;2022-08-18T12:28:31;100002.40;;;26.39;55.60
28027;BME280;15344;52.342;-1.290;2022-08-18T12:30:56;100006.13;;;26.61;53.58
28027;BME280;15344;52.342;-1.290;2022-08-18T12:33:22;100012.22;;;26.32;51.54
28027;BME280;15344;52.342;-1.290;2022-08-18T12:35:48;100010.39;;;26.72;52.40
28027;BME280;15344;52.342;-1.290;2022-08-18T12:38:14;100012.76;;;26.20;51.20
28027;BME280;15344;52.342;-1.290;2022-08-18T12:40:39;100002.64;;;26.59;52.14
28027;BME280;15344;52.342;-1.290;2022-08-18T12:43:06;99991.17;;;26.17;55.42
28027;BME280;15344;52.342;-1.290;2022-08-18T12:45:31;99982.82;;;25.54;54.12
28027;BME280;15344;52.342;-1.290;2022-08-18T12:47:57;99981.67;;;26.48;48.72
28027;BME280;15344;52.342;-1.290;2022-08-18T12:50:22;99984.61;;;25.90;52.55
28027;BME280;15344;52.342;-1.290;2022-08-18T12:52:47;99988.10;;;26.00;52.53
28027;BME280;15344;52.342;-1.290;2022-08-18T12:55:14;99990.99;;;26.89;51.88
28027;BME280;15344;52.342;-1.290;2022-08-18T12:57:38;99992.50;;;27.58;49.57